πŸ“Š DonnΓ©es MΓ©tΓ©o - Bordeaux

Total mesures

14,331

TempΓ©rature moyenne

18.8Β°C

Temp. Min/Max

2.9Β° / 42.4Β°

HumiditΓ© moyenne

64.9%

Pression moyenne

1014.7 hPa
enregistrements
ID Date/Heure Temp (Β°C) HumiditΓ© (%) Pression (hPa) Tendance LuminositΓ© (lux) Situation
13831 28/08/2026 01:00 20.5 69.0 1,010.0 β†’ Stable 0 frais-stable
13830 28/08/2026 00:45 20.6 68.0 1,009.7 β†’ Stable 0 frais-stable
13829 28/08/2026 00:30 20.8 66.0 1,009.7 β†’ Stable 0 frais-stable
13828 28/08/2026 00:15 20.9 64.0 1,009.7 β†’ Stable 0 frais-stable
13827 27/08/2026 23:45 21.1 62.0 1,009.4 β†’ Stable 0 frais-stable
13826 27/08/2026 23:30 21.5 65.0 1,009.4 β†’ Stable 0 frais-stable
13825 27/08/2026 23:15 21.3 69.0 1,009.9 β†’ Stable 0 frais-stable
13824 27/08/2026 22:45 21.3 70.0 1,009.6 β†’ Stable 0 pluvieux-gris (approx.)
13823 27/08/2026 22:15 21.8 65.0 1,009.6 β†’ Stable 0 frais-stable
13822 27/08/2026 22:00 21.8 64.0 1,009.6 β†’ Stable 0 frais-stable
13821 27/08/2026 21:45 21.7 64.0 1,009.0 β†’ Stable 0 frais-stable
13820 27/08/2026 21:30 22.2 62.0 1,009.0 β†’ Stable 0 frais-stable
13819 27/08/2026 21:15 22.2 61.0 1,009.0 β†’ Stable 0 frais-stable
13818 27/08/2026 21:00 22.2 62.0 1,009.0 β†’ Stable 0 frais-stable
13817 27/08/2026 20:45 22.4 62.0 1,007.9 β†’ Stable 0 frais-stable
13816 27/08/2026 20:30 22.2 64.0 1,007.9 β†’ Stable 0 frais-stable
13815 27/08/2026 20:15 22.5 62.0 1,007.9 β†’ Stable 0 frais-stable
13814 27/08/2026 20:00 22.8 60.0 1,007.9 β†’ Stable 0 frais-stable
13813 27/08/2026 19:45 23.1 57.0 1,007.1 β†’ Stable 0 conditions-neutrales-ou-non-definies
13812 27/08/2026 19:30 23.4 56.0 1,007.1 β†’ Stable 0 conditions-neutrales-ou-non-definies
13811 27/08/2026 19:15 23.7 56.0 1,007.3 β†’ Stable 0 conditions-neutrales-ou-non-definies
13810 27/08/2026 19:00 24.0 55.0 1,007.3 β†’ Stable 0 confortablement-chaud (approx.)
13809 27/08/2026 18:45 24.1 55.0 1,007.1 β†’ Stable 276 confortablement-chaud (approx.)
13808 27/08/2026 18:15 23.7 61.0 1,007.1 β†’ Stable 6,948 conditions-neutrales-ou-non-definies
13807 27/08/2026 17:45 24.2 59.0 1,007.1 β†’ Stable 17,220 confortablement-chaud (approx.)
13806 27/08/2026 17:30 24.4 65.0 1,007.1 β†’ Stable 21,108 confortablement-chaud (approx.)
13805 27/08/2026 17:15 24.3 66.0 1,007.1 β†’ Stable 25,560 confortablement-chaud (approx.)
13804 27/08/2026 16:45 23.7 69.0 1,007.0 β†’ Stable 23,700 conditions-neutrales-ou-non-definies
13803 27/08/2026 16:30 22.7 74.0 1,007.0 β†’ Stable 26,208 pluvieux-gris (approx.)
13802 27/08/2026 16:15 24.8 66.0 1,007.0 β†’ Stable 27,876 confortablement-chaud (approx.)
13801 27/08/2026 15:45 28.5 42.0 1,006.2 β†’ Stable 53,328 confortablement-chaud (approx.)
13800 27/08/2026 15:30 27.2 51.0 1,006.2 β†’ Stable 52,680 confortablement-chaud (approx.)
13799 27/08/2026 15:15 26.9 51.0 1,006.2 β†’ Stable 56,208 confortablement-chaud (approx.)
13798 27/08/2026 14:45 27.5 51.0 1,006.7 β†’ Stable 63,144 confortablement-chaud (approx.)
13797 27/08/2026 14:15 27.2 49.0 1,006.7 β†’ Stable 73,056 confortablement-chaud
13796 27/08/2026 13:45 26.6 52.0 1,007.2 β†’ Stable 80,736 confortablement-chaud
13795 27/08/2026 13:15 26.8 45.0 1,007.2 β†’ Stable 68,796 confortablement-chaud (approx.)
13794 27/08/2026 12:45 25.8 51.0 1,007.1 β†’ Stable 66,576 confortablement-chaud (approx.)
13793 27/08/2026 12:15 25.6 52.0 1,007.1 β†’ Stable 50,376 confortablement-chaud (approx.)
13792 27/08/2026 11:45 25.1 57.0 1,007.3 β†’ Stable 45,828 confortablement-chaud (approx.)
13791 27/08/2026 11:30 24.7 61.0 1,007.3 β†’ Stable 31,200 confortablement-chaud (approx.)
13790 27/08/2026 11:15 24.2 63.0 1,007.3 β†’ Stable 28,332 confortablement-chaud (approx.)
13789 27/08/2026 11:00 23.8 68.0 1,007.5 β†’ Stable 30,744 conditions-neutrales-ou-non-definies
13788 27/08/2026 10:45 23.7 68.0 1,007.7 β†’ Stable 29,532 conditions-neutrales-ou-non-definies
13787 27/08/2026 10:15 24.2 63.0 1,007.7 β†’ Stable 27,312 confortablement-chaud (approx.)
13786 27/08/2026 09:45 23.7 68.0 1,007.8 β†’ Stable 38,796 conditions-neutrales-ou-non-definies
13785 27/08/2026 09:15 23.3 68.0 1,007.8 β†’ Stable 22,032 conditions-neutrales-ou-non-definies
13784 27/08/2026 08:45 22.7 74.0 1,007.4 β†’ Stable 32,964 pluvieux-gris (approx.)
13783 27/08/2026 08:30 22.1 79.0 1,007.4 β†’ Stable 18,336 pluvieux-gris (approx.)
13782 27/08/2026 08:15 21.9 80.0 1,007.4 β†’ Stable 16,296 pluvieux-gris (approx.)
13781 27/08/2026 07:45 21.8 77.0 1,007.4 β†’ Stable 11,580 pluvieux-gris (approx.)
13780 27/08/2026 07:15 20.7 84.0 1,007.4 β†’ Stable 9,996 pluvieux-gris (approx.)
13779 27/08/2026 07:00 20.4 86.0 1,007.4 β†’ Stable 12,504 pluvieux-gris (approx.)
13778 27/08/2026 06:45 20.0 88.0 1,007.1 β†’ Stable 11,292 pluvieux-gris (approx.)
13777 27/08/2026 06:15 19.4 91.0 1,007.1 β†’ Stable 6,384 pluvieux-gris (approx.)
13776 27/08/2026 05:45 19.0 92.0 1,007.5 β†’ Stable 1,200 pluvieux-gris (approx.)
13775 27/08/2026 05:30 19.4 90.0 1,007.5 β†’ Stable 0 pluvieux-gris (approx.)
13774 27/08/2026 05:15 19.3 90.0 1,007.5 β†’ Stable 0 pluvieux-gris (approx.)
13773 27/08/2026 04:45 19.3 91.0 1,007.3 β†’ Stable 0 pluvieux-gris (approx.)
13772 27/08/2026 04:30 19.4 91.0 1,007.3 β†’ Stable 0 pluvieux-gris (approx.)
13771 27/08/2026 04:15 19.4 92.0 1,007.3 β†’ Stable 0 pluvieux-gris (approx.)
13770 27/08/2026 03:45 19.2 93.0 1,007.5 β†’ Stable 0 pluvieux-gris (approx.)
13769 27/08/2026 03:15 19.1 95.0 1,007.5 β†’ Stable 0 pluvieux-gris (approx.)
13768 27/08/2026 03:00 19.2 94.0 1,007.5 β†’ Stable 0 pluvieux-gris (approx.)
13767 27/08/2026 02:45 19.3 94.0 1,007.1 β†’ Stable 0 pluvieux-gris (approx.)
13766 27/08/2026 02:30 19.7 92.0 1,007.1 β†’ Stable 0 pluvieux-gris (approx.)
13765 27/08/2026 02:15 19.7 92.0 1,007.1 β†’ Stable 0 pluvieux-gris (approx.)
13764 27/08/2026 02:00 19.7 92.0 1,007.1 β†’ Stable 0 pluvieux-gris (approx.)
13763 27/08/2026 01:45 20.5 90.0 1,006.7 β†’ Stable 0 pluvieux-gris (approx.)
13762 27/08/2026 01:30 20.6 90.0 1,006.7 ↑ Hausse 0 conditions-neutrales-ou-non-definies
13761 27/08/2026 01:15 20.8 88.0 1,006.7 ↑ Hausse 0 conditions-neutrales-ou-non-definies
13760 27/08/2026 01:00 20.9 87.0 1,006.7 ↑ Hausse 0 conditions-neutrales-ou-non-definies
13759 27/08/2026 00:45 21.0 86.0 1,006.8 ↑ Hausse 0 conditions-neutrales-ou-non-definies
13758 27/08/2026 00:30 21.1 85.0 1,006.8 β†’ Stable 0 pluvieux-gris (approx.)
13757 27/08/2026 00:15 21.2 84.0 1,006.8 β†’ Stable 0 pluvieux-gris (approx.)
13756 26/08/2026 23:45 21.2 84.0 1,005.8 β†’ Stable 0 pluvieux-gris (approx.)
13755 26/08/2026 23:30 20.9 83.0 1,005.8 β†’ Stable 0 pluvieux-gris (approx.)
13754 26/08/2026 23:15 20.9 84.0 1,005.8 β†’ Stable 0 pluvieux-gris (approx.)
13753 26/08/2026 22:45 20.9 86.0 1,005.1 β†’ Stable 0 pluvieux-gris (approx.)
13752 26/08/2026 22:30 20.9 83.0 1,005.1 β†’ Stable 0 pluvieux-gris (approx.)
13751 26/08/2026 22:15 21.0 82.0 1,005.1 β†’ Stable 0 pluvieux-gris (approx.)
13750 26/08/2026 21:45 21.4 80.0 1,004.4 β†’ Stable 0 pluvieux-gris (approx.)
13749 26/08/2026 21:30 26.4 47.0 1,004.4 β†’ Stable 0 confortablement-chaud (approx.)
13748 26/08/2026 21:15 26.6 49.0 1,004.4 β†’ Stable 0 confortablement-chaud (approx.)
13747 26/08/2026 20:45 26.5 52.0 1,002.7 β†’ Stable 0 confortablement-chaud (approx.)
13746 26/08/2026 20:30 27.5 47.0 1,002.7 β†’ Stable 0 confortablement-chaud (approx.)
13745 26/08/2026 20:15 27.6 49.0 1,002.7 β†’ Stable 0 confortablement-chaud (approx.)
13744 26/08/2026 20:00 28.2 47.0 1,002.7 β†’ Stable 0 confortablement-chaud (approx.)
13743 26/08/2026 19:45 28.7 46.0 1,001.5 β†’ Stable 0 confortablement-chaud (approx.)
13742 26/08/2026 19:30 29.4 42.0 1,001.5 β†’ Stable 0 conditions-neutrales-ou-non-definies
13741 26/08/2026 19:15 29.8 41.0 1,001.5 β†’ Stable 0 conditions-neutrales-ou-non-definies
13740 26/08/2026 18:45 32.1 35.0 1,001.4 β†’ Stable 372 chaleur-seche
13739 26/08/2026 18:15 32.9 36.0 1,001.4 β†’ Stable 8,244 chaleur-seche
13738 26/08/2026 17:45 33.5 34.0 1,002.2 β†’ Stable 17,868 chaleur-seche
13737 26/08/2026 17:30 33.7 31.0 1,002.2 β†’ Stable 21,948 chaleur-seche
13736 26/08/2026 17:15 33.8 31.0 1,002.2 β†’ Stable 26,760 chaleur-seche
13735 26/08/2026 16:45 33.9 31.0 1,002.9 β†’ Stable 39,168 chaleur-seche
13734 26/08/2026 16:30 34.2 33.0 1,002.9 β†’ Stable 42,228 chaleur-seche
13733 26/08/2026 16:15 34.3 32.0 1,002.9 β†’ Stable 47,124 chaleur-seche
13732 26/08/2026 15:45 34.3 33.0 1,003.3 β†’ Stable 59,904 chaleur-seche